Brasstown, NC

6:39 AM EST on February 13, 2016 (GMT -0500)
Elevation 1780 | | Change Station
CLOSE
Current Station
Personal Weather Station
Location: Brasstown, NC
Elevation: 1780 ft
Nearby Weather Stations

Elev 1780 ft 35.02 °N, 83.97 °W | Updated 12 minutes ago

Mostly Cloudy
Mostly Cloudy
23.2 °F
Feels Like 23 °F
N
0.0
Wind Variable Wind from South
Gusts 9.0 mph

Today
High -- | Low -- °F
--% Chance of Precip.
Yesterday
High -- | Low -- °F
Precip. -- in
Pressure 30.24 in
Visibility 10.0 miles
Clouds Clear
Windchill 23 °F
Dew Point 15 °F
Humidity 71%
Rainfall 0.00 in
Snow Depth Not available.
7:24 AM 6:16 PM
Waxing Crescent, 30% visible
METAR KRHP 131115Z AUTO 08008G20KT 010V110 10SM CLR M04/M10 A3024 RMK AO2 T10421101
Pressure 30.24 in
Visibility 10.0 miles
Clouds Clear
Windchill 23 °F
Dew Point 15 °F
Humidity 71%
Rainfall 0.00 in
Snow Depth Not available.
7:24 AM 6:16 PM
Waxing Crescent, 30% visible
METAR KRHP 131115Z AUTO 08008G20KT 010V110 10SM CLR M04/M10 A3024 RMK AO2 T10421101

10-Day Weather Forecast

Almanac

Astronomy

Feb. 13, 2016 Rise Set
Actual Time
Civil Twilight
Nautical Twilight
Astronomical Twilight
Moon
Length of Visible Light
Length of Day
Tomorrow will be .
, % of the Moon is Illuminated

Today's Extremes

State Highs State Lows

Community

WunderPhotos

Upload Photos

1,892,541 photos uploaded!

WunderBlog® & News

Nearby

Air Quality

  Air Quality AQ Index Pollutant
Not available.

Snow Depth

Station Depth Elevation

Earthquake Activity

City Distance Mag. Time & Date
Minimum magnitude displayed is 2.5.

Coastal Water Temperatures

Place Temperature

Stations

Nearby Weather Stations

Station Location Temp. Windchill Dew Point Humidity Wind Precip. Elev Updated Type
                   

Watches & Warnings

There are currently no watches in effect.